createdAt,value
2022-12-18T17:51:44.215Z,101874.11
2022-12-18T17:53:56.144Z,101881.19
2022-12-18T17:54:58.014Z,101885.36
2022-12-18T17:56:01.093Z,101886.83
2022-12-18T17:57:04.108Z,101890.58
2022-12-18T17:58:07.926Z,101881.97
2022-12-18T17:59:10.493Z,101886.34
2022-12-18T18:00:14.118Z,101893.91
2022-12-18T18:01:19.383Z,101892.56
2022-12-18T18:02:21.985Z,101905.01
2022-12-18T18:03:24.910Z,101892.23
2022-12-18T18:04:27.066Z,101892.30
2022-12-18T18:05:29.054Z,101898.92
2022-12-18T18:06:31.808Z,101897.39
2022-12-18T18:07:36.107Z,101900.22
2022-12-18T18:08:38.107Z,101902.86
2022-12-18T18:10:02.622Z,101907.66
2022-12-18T18:11:07.337Z,101918.22
2022-12-18T18:12:09.460Z,101920.24
2022-12-18T18:13:15.584Z,101911.82
2022-12-18T18:14:25.526Z,101922.17
2022-12-18T18:15:32.176Z,101921.36
2022-12-18T18:16:38.550Z,101931.87
2022-12-18T18:17:40.846Z,101924.75
2022-12-18T18:18:47.679Z,101919.59
2022-12-18T18:19:49.908Z,101931.56
2022-12-18T18:20:51.984Z,101937.73
2022-12-18T18:22:00.574Z,101933.29
2022-12-18T18:23:03.322Z,101934.66
2022-12-18T18:24:06.304Z,101934.60
2022-12-18T18:25:09.318Z,101937.50
2022-12-18T18:26:12.440Z,101934.48
2022-12-18T18:27:16.299Z,101944.61
2022-12-18T18:28:18.756Z,101943.92
2022-12-18T18:29:26.521Z,101934.54
2022-12-18T18:30:30.042Z,101939.83
2022-12-18T18:31:33.767Z,101945.73
2022-12-18T18:32:37.562Z,101953.21
2022-12-18T18:33:40.103Z,101954.24
2022-12-18T18:34:42.777Z,101956.30
2022-12-18T18:35:53.902Z,101958.11
2022-12-18T18:36:49.067Z,101956.86
2022-12-18T18:37:52.208Z,101959.95
2022-12-18T18:38:58.094Z,101964.56
2022-12-18T18:40:03.303Z,101966.55
2022-12-18T18:41:05.861Z,101967.55
2022-12-18T18:42:07.950Z,101969.39
2022-12-18T18:43:09.970Z,101968.58
2022-12-18T18:44:12.611Z,101968.58
2022-12-18T18:45:15.298Z,101971.59
2022-12-18T18:46:17.594Z,101967.55
2022-12-18T18:47:19.739Z,101973.11
2022-12-18T18:48:22.609Z,101972.23
2022-12-18T18:49:26.231Z,101973.91
2022-12-18T18:50:28.283Z,101971.20
2022-12-18T18:51:35.074Z,101967.30
2022-12-18T18:52:35.984Z,101974.48
2022-12-18T18:53:45.602Z,101975.42
2022-12-18T18:55:11.793Z,101972.16
2022-12-18T18:56:17.499Z,101982.42
2022-12-18T18:57:19.504Z,101972.45
2022-12-18T18:58:00.508Z,101980.39
2022-12-18T18:59:04.163Z,101970.01
2022-12-18T19:00:09.212Z,101968.33
2022-12-18T19:01:14.444Z,101977.20
2022-12-18T19:02:19.776Z,101973.17
2022-12-18T19:03:22.549Z,101978.27
2022-12-18T19:04:28.198Z,101976.88
2022-12-18T19:05:33.418Z,101975.04
2022-12-18T19:06:35.740Z,101976.48
2022-12-18T19:07:38.287Z,101988.78
2022-12-18T19:08:40.637Z,101988.97
2022-12-18T19:09:44.267Z,101996.58
2022-12-18T19:10:47.525Z,101999.03
2022-12-18T19:11:49.452Z,102005.12
2022-12-18T19:12:51.785Z,102017.02
2022-12-18T19:13:56.004Z,102017.16
2022-12-18T19:15:02.066Z,102027.28
2022-12-18T19:16:07.269Z,102019.60
2022-12-18T19:17:16.373Z,102018.02
2022-12-18T19:18:19.371Z,102018.89
2022-12-18T19:20:42.628Z,102023.58
2022-12-18T19:21:46.812Z,102034.62
2022-12-18T19:22:55.084Z,102031.50
2022-12-18T19:23:52.956Z,102031.50
2022-12-18T19:24:54.848Z,102032.44
2022-12-18T19:26:26.970Z,102024.30
2022-12-18T19:27:10.023Z,102028.52
2022-12-18T19:28:16.422Z,102039.11
2022-12-18T19:29:20.216Z,102025.75
2022-12-18T19:30:22.259Z,102034.48
2022-12-18T19:31:30.380Z,102040.61
2022-12-18T19:32:32.887Z,102038.03
2022-12-18T19:33:45.639Z,102042.63
2022-12-18T19:34:42.421Z,102042.69
2022-12-18T19:35:46.376Z,102052.14
2022-12-18T19:36:48.806Z,102053.07
2022-12-18T19:37:52.739Z,102056.26
2022-12-18T19:38:58.391Z,102053.75
2022-12-18T19:40:03.545Z,102058.23
2022-12-18T19:41:12.456Z,102054.91
2022-12-18T19:42:13.305Z,102062.79
2022-12-18T19:43:18.218Z,102071.23
2022-12-18T19:44:20.278Z,102069.09
2022-12-18T19:45:22.161Z,102076.84
2022-12-18T19:46:28.831Z,102071.96
2022-12-18T19:47:32.642Z,102072.38
2022-12-18T19:48:34.844Z,102083.69
2022-12-18T19:49:44.066Z,102080.45
2022-12-18T19:50:46.246Z,102076.02
2022-12-18T19:51:48.873Z,102081.18
2022-12-18T19:52:52.532Z,102092.44
2022-12-18T19:53:59.384Z,102094.88
2022-12-18T19:55:01.779Z,102096.45
2022-12-18T19:56:11.712Z,102092.87
2022-12-18T19:57:13.641Z,102101.97
2022-12-18T19:58:15.754Z,102102.22
2022-12-18T19:59:17.858Z,102102.91
2022-12-18T20:00:20.324Z,102103.92
2022-12-18T20:01:24.566Z,102109.84
2022-12-18T20:02:27.280Z,102107.27
2022-12-18T20:04:46.949Z,102113.20
2022-12-18T20:05:50.139Z,102110.42
2022-12-18T20:06:54.446Z,102116.28
2022-12-18T20:07:56.808Z,102116.95
2022-12-18T20:09:01.948Z,102113.77
2022-12-18T20:10:09.229Z,102114.78
2022-12-18T20:11:12.682Z,102118.93
2022-12-18T20:12:14.683Z,102117.16
2022-12-18T20:13:18.680Z,102111.19
2022-12-18T20:14:23.143Z,102112.00
2022-12-18T20:15:26.209Z,102120.95
2022-12-18T20:16:28.567Z,102125.23
2022-12-18T20:17:31.304Z,102121.85
2022-12-18T20:18:34.183Z,102123.59
2022-12-18T20:19:39.005Z,102129.77
2022-12-18T20:20:41.310Z,102126.03
2022-12-18T20:21:43.708Z,102126.95
2022-12-18T20:22:46.035Z,102139.98
2022-12-18T20:23:48.806Z,102119.06
2022-12-18T20:24:50.959Z,102127.61
2022-12-18T20:25:55.717Z,102140.50
2022-12-18T20:26:57.795Z,102130.61
2022-12-18T20:28:00.230Z,102133.72
2022-12-18T20:29:02.333Z,102134.20
2022-12-18T20:30:05.880Z,102128.84
2022-12-18T20:31:10.502Z,102132.63
2022-12-18T20:32:14.590Z,102143.68
2022-12-18T20:33:17.131Z,102137.86
2022-12-18T20:34:19.968Z,102139.64
2022-12-18T20:35:22.684Z,102146.45
2022-12-18T20:36:27.106Z,102147.61
2022-12-18T20:37:30.778Z,102148.37
2022-12-18T20:38:34.971Z,102155.13
2022-12-18T20:39:37.046Z,102159.77
2022-12-18T20:40:43.884Z,102165.28
2022-12-18T20:41:45.852Z,102167.17
2022-12-18T20:42:47.746Z,102152.78
2022-12-18T20:43:56.345Z,102161.34
2022-12-18T20:44:58.283Z,102159.64
2022-12-18T20:46:02.095Z,102165.66
2022-12-18T20:47:08.602Z,102175.75
2022-12-18T20:48:09.700Z,102167.14
2022-12-18T20:49:15.965Z,102177.12
2022-12-18T20:50:18.147Z,102174.55
2022-12-18T20:51:20.946Z,102172.37
2022-12-18T20:52:24.770Z,102174.41
2022-12-18T20:53:27.034Z,102178.10
2022-12-18T20:54:29.772Z,102188.93
2022-12-18T20:55:31.696Z,102186.06
2022-12-18T20:56:33.710Z,102181.34
2022-12-18T20:57:35.737Z,102189.55
2022-12-18T20:58:39.762Z,102190.70
2022-12-18T20:59:48.109Z,102187.37
2022-12-18T21:00:47.988Z,102195.25
2022-12-18T21:01:50.780Z,102196.01
2022-12-18T21:02:53.013Z,102197.72
2022-12-18T21:04:01.187Z,102184.39
2022-12-18T21:05:04.130Z,102192.34
2022-12-18T21:06:08.046Z,102182.97
2022-12-18T21:07:09.957Z,102180.91
2022-12-18T21:08:15.254Z,102185.63
2022-12-18T21:09:23.009Z,102187.11
2022-12-18T21:10:35.159Z,102187.19
2022-12-18T21:11:31.259Z,102190.78
2022-12-18T21:12:42.700Z,102192.27
2022-12-18T21:13:39.380Z,102191.03
2022-12-18T21:14:42.627Z,102195.90
2022-12-18T21:15:44.573Z,102195.97
2022-12-18T21:16:48.412Z,102205.59
2022-12-18T21:17:50.901Z,102201.85
2022-12-18T21:18:54.516Z,102200.37
2022-12-18T21:19:58.638Z,102203.89
2022-12-18T21:21:01.957Z,102201.27
2022-12-18T21:22:04.052Z,102198.41
2022-12-18T21:23:15.883Z,102208.02
2022-12-18T21:24:11.167Z,102205.59
2022-12-18T21:25:14.962Z,102209.05
2022-12-18T21:26:25.280Z,102211.44
2022-12-18T21:27:29.986Z,102213.94
2022-12-18T21:28:32.101Z,102211.87
2022-12-18T21:29:36.538Z,102212.98
2022-12-18T21:30:39.067Z,102211.50
2022-12-18T21:31:44.552Z,102213.80
2022-12-18T21:32:46.787Z,102212.48
2022-12-18T21:33:55.262Z,102214.91
2022-12-18T21:34:56.293Z,102216.00
2022-12-18T21:35:59.406Z,102218.58
2022-12-18T21:37:02.185Z,102217.17
2022-12-18T21:38:05.798Z,102211.80
2022-12-18T21:39:09.908Z,102229.53
2022-12-18T21:40:13.669Z,102216.73
2022-12-18T21:41:15.737Z,102222.64
2022-12-18T21:42:18.550Z,102218.66
2022-12-18T21:43:22.568Z,102218.73
2022-12-18T21:44:25.136Z,102229.69
2022-12-18T21:45:27.155Z,102227.34
2022-12-18T21:46:39.250Z,102221.42
2022-12-18T21:47:41.330Z,102232.19
2022-12-18T21:48:43.214Z,102227.03
2022-12-18T21:49:47.555Z,102218.42
2022-12-18T21:50:49.814Z,102223.20
2022-12-18T21:51:55.081Z,102232.03
2022-12-18T21:52:56.994Z,102226.80
2022-12-18T21:53:59.785Z,102223.36
2022-12-18T21:55:08.544Z,102228.51
2022-12-18T21:56:07.752Z,102228.59
2022-12-18T21:57:10.081Z,102232.73
2022-12-18T21:58:11.975Z,102233.36
2022-12-18T21:59:16.723Z,102244.61
2022-12-18T22:00:19.778Z,102215.78
2022-12-18T22:01:22.120Z,102232.86
2022-12-18T22:02:24.548Z,102227.18
2022-12-18T22:03:26.755Z,102264.42
2022-12-18T22:04:32.213Z,102248.50
2022-12-18T22:05:34.164Z,102240.28
2022-12-18T22:06:36.749Z,102244.38
2022-12-18T22:07:39.368Z,102250.59
2022-12-18T22:08:43.562Z,102248.96
2022-12-18T22:09:45.129Z,102247.39
2022-12-18T22:10:47.967Z,102242.02
2022-12-18T22:11:53.187Z,102245.97
2022-12-18T22:12:55.222Z,102250.25
2022-12-18T22:13:57.435Z,102242.29
2022-12-18T22:15:00.369Z,102260.83
2022-12-18T22:16:02.894Z,102259.08
2022-12-18T22:17:06.243Z,102256.27
2022-12-18T22:18:12.032Z,102262.30
2022-12-18T22:19:15.343Z,102266.57
2022-12-18T22:20:20.781Z,102252.27
2022-12-18T22:21:29.330Z,102272.55
2022-12-18T22:22:30.061Z,102267.40
2022-12-18T22:23:32.370Z,102266.05
2022-12-18T22:24:34.413Z,102263.87
2022-12-18T22:25:39.865Z,102256.47
2022-12-18T22:26:42.978Z,102240.57
2022-12-18T22:27:45.194Z,102245.45
2022-12-18T22:28:47.361Z,102260.02
2022-12-18T22:29:49.405Z,102257.06
2022-12-18T22:30:58.994Z,102267.19
2022-12-18T22:31:56.834Z,102257.76
2022-12-18T22:32:58.812Z,102275.06
2022-12-18T22:34:01.123Z,102268.30
2022-12-18T22:35:10.417Z,102267.27
2022-12-18T22:36:11.459Z,102273.61
2022-12-18T22:37:13.351Z,102263.89
2022-12-18T22:38:17.969Z,102269.83
2022-12-18T22:39:23.598Z,102266.75
2022-12-18T22:40:27.504Z,102272.00
2022-12-18T22:41:29.936Z,102272.54
2022-12-18T22:42:34.046Z,102281.80
2022-12-18T22:43:36.285Z,102287.19
2022-12-18T22:44:38.279Z,102285.57
2022-12-18T22:45:40.270Z,102282.29
2022-12-18T22:46:51.387Z,102285.19
2022-12-18T22:47:53.934Z,102284.56
2022-12-18T22:48:55.842Z,102298.22
2022-12-18T22:49:59.370Z,102292.66
2022-12-18T22:51:01.880Z,102288.17
2022-12-18T22:52:06.402Z,102303.12
2022-12-18T22:53:08.408Z,102296.27
2022-12-18T22:54:10.811Z,102300.87
2022-12-18T22:55:12.687Z,102304.41
2022-12-18T22:56:21.240Z,102299.09
2022-12-18T22:57:20.943Z,102295.31
2022-12-18T22:58:23.015Z,102293.45
2022-12-18T22:59:24.902Z,102289.05
2022-12-18T23:00:26.999Z,102305.20
2022-12-18T23:01:31.607Z,102301.33
2022-12-18T23:02:35.072Z,102299.89
2022-12-18T23:03:37.260Z,102306.12
2022-12-18T23:04:39.372Z,102308.36
2022-12-18T23:05:41.355Z,102297.13
2022-12-18T23:06:45.256Z,102294.90
2022-12-18T23:07:47.179Z,102304.70
2022-12-18T23:08:55.706Z,102299.55
2022-12-18T23:09:59.658Z,102298.59
2022-12-18T23:10:57.466Z,102302.95
2022-12-18T23:12:01.277Z,102300.45
2022-12-18T23:13:04.888Z,102311.80
2022-12-18T23:14:07.964Z,102300.13
2022-12-18T23:15:10.272Z,102297.47
2022-12-18T23:16:14.934Z,102303.48
2022-12-18T23:17:16.924Z,102295.23
2022-12-18T23:18:18.860Z,102306.48
2022-12-18T23:19:23.505Z,102305.35
2022-12-18T23:20:26.811Z,102296.52
2022-12-18T23:21:29.002Z,102301.57
2022-12-18T23:22:31.751Z,102313.36
2022-12-18T23:23:35.450Z,102310.95
2022-12-18T23:24:38.700Z,102308.55
2022-12-18T23:25:40.705Z,102308.37
2022-12-18T23:26:42.744Z,102306.89
2022-12-18T23:27:44.629Z,102305.02
2022-12-18T23:28:47.833Z,102310.65
2022-12-18T23:29:49.744Z,102312.73
2022-12-18T23:30:53.700Z,102310.78
2022-12-18T23:31:55.903Z,102308.70
2022-12-18T23:32:58.730Z,102313.30
2022-12-18T23:34:02.534Z,102312.23
2022-12-18T23:35:06.484Z,102306.91
2022-12-18T23:36:10.734Z,102313.84
2022-12-18T23:37:12.631Z,102321.73
2022-12-18T23:38:14.542Z,102324.47
2022-12-18T23:39:29.082Z,102323.16
2022-12-18T23:40:20.335Z,102318.81
2022-12-18T23:41:24.849Z,102319.60
2022-12-18T23:42:26.929Z,102323.64
2022-12-18T23:43:29.968Z,102326.35
2022-12-18T23:44:32.175Z,102321.89
2022-12-18T23:45:36.752Z,102318.20
2022-12-18T23:46:39.404Z,102328.00
2022-12-18T23:47:41.453Z,102331.19
2022-12-18T23:48:43.876Z,102334.94
2022-12-18T23:49:45.785Z,102332.63
2022-12-18T23:50:48.337Z,102331.44
2022-12-18T23:51:52.215Z,102343.59
2022-12-18T23:53:03.277Z,102344.52
2022-12-18T23:54:02.316Z,102343.16
2022-12-18T23:55:05.676Z,102342.91
2022-12-18T23:56:09.736Z,102346.14
2022-12-18T23:57:12.082Z,102349.22
2022-12-18T23:58:19.647Z,102356.77
2022-12-18T23:59:25.409Z,102349.53
